createdAt,value
2023-03-10T00:01:28.870Z,12.27
2023-03-10T00:03:58.597Z,12.32
2023-03-10T00:06:30.503Z,12.38
2023-03-10T00:08:59.393Z,12.34
2023-03-10T00:11:27.398Z,12.30
2023-03-10T00:13:55.072Z,12.20
2023-03-10T00:16:26.114Z,12.31
2023-03-10T00:18:54.096Z,12.36
2023-03-10T00:21:25.143Z,12.40
2023-03-10T00:23:53.414Z,12.41
2023-03-10T00:26:22.598Z,12.44
2023-03-10T00:28:50.758Z,12.46
2023-03-10T00:31:22.774Z,12.52
2023-03-10T00:33:52.312Z,12.53
2023-03-10T00:36:22.619Z,12.57
2023-03-10T00:38:51.923Z,12.63
2023-03-10T00:41:26.042Z,12.67
2023-03-10T00:43:54.950Z,12.70
2023-03-10T00:46:23.084Z,12.69
2023-03-10T00:48:51.673Z,12.51
2023-03-10T00:51:20.902Z,12.59
2023-03-10T00:53:49.517Z,12.62
2023-03-10T00:56:22.844Z,12.76
2023-03-10T00:58:52.620Z,12.87
2023-03-10T01:01:23.685Z,12.96
2023-03-10T01:03:53.931Z,13.05
2023-03-10T01:06:22.582Z,13.03
2023-03-10T01:08:50.529Z,12.97
2023-03-10T01:11:20.678Z,12.83
2023-03-10T01:13:49.338Z,12.82
2023-03-10T01:16:18.316Z,12.62
2023-03-10T01:18:46.280Z,12.83
2023-03-10T01:21:21.151Z,12.79
2023-03-10T01:23:49.567Z,12.94
2023-03-10T01:26:19.431Z,12.97
2023-03-10T01:28:49.414Z,13.00
2023-03-10T01:31:18.331Z,13.06
2023-03-10T01:33:47.088Z,13.20
2023-03-10T01:36:18.666Z,13.18
2023-03-10T01:38:47.755Z,13.12
2023-03-10T01:41:16.814Z,12.93
2023-03-10T01:43:47.270Z,12.80
2023-03-10T01:46:28.014Z,12.75
2023-03-10T01:49:04.968Z,12.80
2023-03-10T01:51:36.083Z,12.69
2023-03-10T01:54:09.660Z,12.63
2023-03-10T01:56:38.339Z,12.68
2023-03-10T01:59:06.580Z,12.79
2023-03-10T02:01:35.690Z,12.77
2023-03-10T02:04:11.857Z,12.77
2023-03-10T02:06:41.879Z,12.94
2023-03-10T02:09:10.907Z,12.94
2023-03-10T02:11:39.544Z,12.94
2023-03-10T02:14:07.397Z,12.92
2023-03-10T02:16:35.735Z,12.90
2023-03-10T02:19:07.010Z,12.77
2023-03-10T02:22:12.555Z,12.73
2023-03-10T02:25:11.148Z,12.54
2023-03-10T02:27:40.056Z,12.49
2023-03-10T02:30:12.128Z,12.42
2023-03-10T02:32:47.639Z,12.39
2023-03-10T02:35:16.203Z,12.41
2023-03-10T02:38:04.417Z,12.44
2023-03-10T02:40:37.747Z,12.45
2023-03-10T02:43:28.541Z,12.51
2023-03-10T02:46:06.705Z,12.57
2023-03-10T02:48:39.915Z,12.67
2023-03-10T02:51:23.581Z,12.89
2023-03-10T02:53:52.473Z,12.91
2023-03-10T02:56:20.398Z,12.92
2023-03-10T02:58:49.851Z,13.08
2023-03-10T03:01:18.404Z,13.19
2023-03-10T03:03:46.476Z,13.28
2023-03-10T03:06:14.451Z,13.42
2023-03-10T03:08:42.646Z,13.36
2023-03-10T03:11:14.330Z,13.41
2023-03-10T03:13:42.224Z,12.94
2023-03-10T03:16:11.062Z,12.80
2023-03-10T03:18:41.050Z,12.75
2023-03-10T03:21:15.934Z,12.93
2023-03-10T03:23:46.049Z,13.04
2023-03-10T03:26:17.469Z,13.14
2023-03-10T03:28:45.622Z,13.11
2023-03-10T03:31:16.326Z,13.16
2023-03-10T03:33:45.392Z,12.87
2023-03-10T03:36:14.439Z,13.05
2023-03-10T03:38:42.950Z,12.78
2023-03-10T03:41:11.237Z,12.95
2023-03-10T03:43:39.831Z,12.86
2023-03-10T03:46:07.383Z,12.85
2023-03-10T03:48:36.840Z,12.86
2023-03-10T03:51:07.511Z,12.85
2023-03-10T03:53:41.707Z,12.97
2023-03-10T03:56:09.796Z,12.88
2023-03-10T03:58:39.345Z,12.91
2023-03-10T04:01:06.984Z,12.89
2023-03-10T04:03:41.110Z,13.00
2023-03-10T04:06:11.956Z,12.92
2023-03-10T04:08:42.105Z,12.75
2023-03-10T04:11:10.264Z,12.67
2023-03-10T04:13:42.048Z,12.80
2023-03-10T04:16:10.640Z,12.96
2023-03-10T04:18:40.972Z,13.02
2023-03-10T04:21:12.339Z,12.91
2023-03-10T04:23:42.255Z,12.83
2023-03-10T04:26:12.912Z,12.87
2023-03-10T04:28:41.846Z,12.90
2023-03-10T04:31:16.569Z,12.98
2023-03-10T04:33:47.116Z,12.99
2023-03-10T04:36:15.426Z,12.87
2023-03-10T04:38:45.754Z,12.78
2023-03-10T04:41:14.960Z,12.95
2023-03-10T04:43:47.757Z,13.08
2023-03-10T04:46:17.776Z,13.06
2023-03-10T04:48:46.519Z,13.15
2023-03-10T04:51:14.965Z,13.11
2023-03-10T04:53:48.660Z,13.16
2023-03-10T04:56:17.061Z,13.08
2023-03-10T04:58:45.183Z,13.10
2023-03-10T05:01:14.953Z,13.02
2023-03-10T05:03:50.026Z,13.03
2023-03-10T05:06:21.402Z,13.04
2023-03-10T05:09:07.946Z,12.96
2023-03-10T05:11:36.754Z,12.96
2023-03-10T05:14:04.455Z,12.93
2023-03-10T05:16:33.353Z,12.97
2023-03-10T05:19:01.517Z,12.85
2023-03-10T05:21:31.264Z,12.80
2023-03-10T05:23:59.872Z,12.75
2023-03-10T05:26:27.870Z,12.77
2023-03-10T05:28:57.042Z,12.54
2023-03-10T05:31:36.161Z,12.60
2023-03-10T05:34:09.644Z,12.53
2023-03-10T05:36:37.931Z,12.58
2023-03-10T05:39:09.500Z,12.52
2023-03-10T05:41:42.164Z,12.65
2023-03-10T05:44:10.560Z,12.79
2023-03-10T05:46:40.106Z,12.95
2023-03-10T05:49:08.791Z,12.99
2023-03-10T05:51:36.608Z,13.08
2023-03-10T05:54:06.403Z,13.22
2023-03-10T05:56:34.199Z,13.23
2023-03-10T05:59:04.119Z,13.11
2023-03-10T06:01:34.808Z,13.16
2023-03-10T06:04:02.946Z,13.15
2023-03-10T06:06:31.239Z,13.17
2023-03-10T06:08:58.732Z,13.21
2023-03-10T06:11:26.647Z,13.31
2023-03-10T06:13:55.144Z,13.18
2023-03-10T06:16:23.151Z,13.34
2023-03-10T06:18:55.100Z,13.44
2023-03-10T06:21:23.777Z,13.41
2023-03-10T06:23:52.349Z,13.66
2023-03-10T06:26:20.368Z,13.78
2023-03-10T06:28:48.341Z,13.99
2023-03-10T06:31:22.193Z,13.93
2023-03-10T06:33:50.917Z,13.88
2023-03-10T06:36:19.934Z,13.73
2023-03-10T06:38:48.099Z,13.62
2023-03-10T06:41:16.787Z,13.67
2023-03-10T06:43:44.974Z,13.70
2023-03-10T06:46:13.797Z,13.75
2023-03-10T06:48:42.970Z,13.86
2023-03-10T06:51:19.491Z,14.00
2023-03-10T06:53:49.181Z,13.99
2023-03-10T06:56:20.334Z,14.05
2023-03-10T06:58:49.177Z,14.22
2023-03-10T07:01:26.572Z,14.42
2023-03-10T07:03:56.066Z,14.46
2023-03-10T07:06:24.631Z,14.54
2023-03-10T07:08:54.408Z,14.72
2023-03-10T07:11:23.104Z,14.82
2023-03-10T07:13:51.291Z,14.75
2023-03-10T07:16:19.386Z,15.04
2023-03-10T07:18:47.461Z,14.91
2023-03-10T07:21:17.811Z,14.96
2023-03-10T07:23:45.839Z,14.79
2023-03-10T07:26:18.782Z,14.94
2023-03-10T07:28:47.249Z,15.20
2023-03-10T07:31:16.063Z,15.66
2023-03-10T07:33:44.130Z,15.72
2023-03-10T07:36:15.237Z,15.60
2023-03-10T07:38:43.561Z,15.54
2023-03-10T07:41:15.369Z,15.37
2023-03-10T07:43:43.770Z,15.22
2023-03-10T07:46:13.866Z,15.56
2023-03-10T07:48:42.456Z,15.85
2023-03-10T07:51:10.016Z,16.05
2023-03-10T07:53:38.044Z,16.05
2023-03-10T07:56:08.119Z,16.07
2023-03-10T07:58:35.794Z,15.99
2023-03-10T08:01:05.562Z,16.49
2023-03-10T08:03:34.309Z,16.59
2023-03-10T08:06:02.707Z,16.84
2023-03-10T08:08:30.225Z,16.99
2023-03-10T08:11:16.133Z,16.60
2023-03-10T08:13:47.725Z,16.88
2023-03-10T08:16:18.165Z,16.86
2023-03-10T08:18:45.799Z,17.09
2023-03-10T08:21:14.032Z,16.98
2023-03-10T08:23:42.062Z,16.91
2023-03-10T08:26:13.837Z,17.18
2023-03-10T08:28:42.210Z,17.26
2023-03-10T08:31:13.124Z,17.37
2023-03-10T08:33:42.430Z,17.49
2023-03-10T08:36:19.684Z,17.77
2023-03-10T08:38:48.761Z,17.69
2023-03-10T08:41:25.096Z,17.90
2023-03-10T08:43:54.933Z,17.89
2023-03-10T08:46:24.778Z,18.09
2023-03-10T08:48:53.975Z,18.44
2023-03-10T08:51:22.495Z,18.41
2023-03-10T08:53:51.283Z,18.32
2023-03-10T08:56:21.630Z,18.47
2023-03-10T08:58:49.361Z,18.81
2023-03-10T09:01:18.565Z,19.24
2023-03-10T09:03:46.446Z,19.38
2023-03-10T09:06:15.084Z,19.57
2023-03-10T09:08:43.158Z,19.21
2023-03-10T09:11:16.615Z,19.50
2023-03-10T09:13:44.353Z,19.15
2023-03-10T09:16:13.651Z,19.21
2023-03-10T09:18:41.644Z,19.86
2023-03-10T09:21:12.372Z,20.33
2023-03-10T09:23:42.267Z,21.31
2023-03-10T09:26:11.065Z,21.99
2023-03-10T09:28:38.671Z,22.91
2023-03-10T09:31:08.126Z,23.36
2023-03-10T09:33:36.032Z,23.59
2023-03-10T09:36:07.696Z,23.46
2023-03-10T09:38:36.718Z,22.73
2023-03-10T09:41:16.897Z,22.30
2023-03-10T09:43:50.901Z,22.94
2023-03-10T09:46:25.922Z,23.43
2023-03-10T09:49:07.312Z,24.16
2023-03-10T09:51:38.102Z,25.58
2023-03-10T09:54:39.576Z,25.28
2023-03-10T09:57:28.081Z,23.59
2023-03-10T10:00:00.800Z,22.57
2023-03-10T10:02:28.194Z,21.54
2023-03-10T10:05:03.793Z,21.71
2023-03-10T10:07:43.320Z,21.52
2023-03-10T10:10:28.497Z,21.09
2023-03-10T10:13:01.748Z,20.76
2023-03-10T10:15:34.908Z,21.52
2023-03-10T10:18:39.262Z,21.56
2023-03-10T10:21:13.903Z,22.11
2023-03-10T10:23:49.772Z,22.19
2023-03-10T10:26:21.232Z,22.22
2023-03-10T10:29:14.325Z,21.78
2023-03-10T10:31:42.239Z,21.74
2023-03-10T10:34:23.385Z,21.63
2023-03-10T10:36:56.413Z,21.26
2023-03-10T10:39:28.329Z,20.94
2023-03-10T10:42:13.139Z,20.22
2023-03-10T10:44:44.587Z,20.68
2023-03-10T10:47:34.783Z,21.82
2023-03-10T10:50:18.294Z,24.86
2023-03-10T10:52:50.635Z,25.75
2023-03-10T10:55:34.820Z,24.59
2023-03-10T10:58:06.956Z,26.24
2023-03-10T11:00:38.234Z,26.35
2023-03-10T11:03:27.108Z,24.59
2023-03-10T11:05:56.535Z,26.00
2023-03-10T11:08:27.246Z,26.51
2023-03-10T11:11:13.546Z,24.93
2023-03-10T11:13:52.973Z,24.47
2023-03-10T11:16:27.300Z,25.74
2023-03-10T11:19:33.804Z,26.05
2023-03-10T11:22:24.761Z,26.65
2023-03-10T11:25:37.084Z,26.19
2023-03-10T11:28:39.364Z,26.76
2023-03-10T11:31:32.093Z,25.83
2023-03-10T11:34:12.272Z,24.64
2023-03-10T11:36:56.340Z,24.16
2023-03-10T11:39:37.381Z,23.72
2023-03-10T11:42:20.656Z,24.66
2023-03-10T11:45:02.671Z,26.14
2023-03-10T11:47:49.254Z,26.19
2023-03-10T11:50:20.940Z,25.19
2023-03-10T11:52:53.191Z,24.17
2023-03-10T11:55:22.464Z,23.61
2023-03-10T11:57:57.444Z,23.08
2023-03-10T12:00:33.804Z,23.55
2023-03-10T12:03:15.193Z,24.22
2023-03-10T12:06:00.716Z,22.95
2023-03-10T12:08:33.622Z,24.39
2023-03-10T12:11:05.439Z,24.65
2023-03-10T12:13:45.330Z,24.91
2023-03-10T12:16:19.837Z,24.96
2023-03-10T12:18:48.541Z,24.90
2023-03-10T12:21:30.726Z,24.73
2023-03-10T12:24:01.738Z,24.29
2023-03-10T12:26:38.393Z,24.33
2023-03-10T12:29:21.981Z,25.15
2023-03-10T12:31:52.236Z,25.16
2023-03-10T12:34:24.765Z,24.11
2023-03-10T12:37:03.602Z,24.87
2023-03-10T12:39:34.305Z,24.72
2023-03-10T12:42:04.555Z,25.92
2023-03-10T12:44:48.393Z,25.41
2023-03-10T12:47:19.091Z,25.01
2023-03-10T12:49:50.917Z,24.89
2023-03-10T12:52:31.833Z,25.13
2023-03-10T12:55:17.090Z,26.41
2023-03-10T12:57:51.426Z,25.50
2023-03-10T13:00:29.865Z,24.44
2023-03-10T13:03:04.101Z,25.24
2023-03-10T13:05:38.891Z,23.88
2023-03-10T13:08:27.296Z,25.09
2023-03-10T13:10:58.803Z,24.80
2023-03-10T13:13:36.526Z,25.03
2023-03-10T13:16:07.186Z,24.28
2023-03-10T13:18:36.097Z,25.40
2023-03-10T13:21:04.376Z,26.20
2023-03-10T13:23:35.530Z,27.87
2023-03-10T13:26:07.484Z,26.11
2023-03-10T13:28:36.505Z,24.13
2023-03-10T13:31:14.831Z,23.00
2023-03-10T13:33:52.774Z,25.28
2023-03-10T13:36:36.726Z,25.55
2023-03-10T13:39:10.454Z,22.52
2023-03-10T13:41:41.974Z,22.07
2023-03-10T13:44:21.472Z,23.41
2023-03-10T13:46:54.923Z,26.01
2023-03-10T13:49:26.126Z,26.82
2023-03-10T13:51:59.143Z,26.85
2023-03-10T13:54:30.261Z,24.92
2023-03-10T13:57:10.629Z,25.01
2023-03-10T13:59:39.428Z,24.65
2023-03-10T14:02:18.974Z,25.29
2023-03-10T14:04:49.310Z,25.24
2023-03-10T14:07:32.845Z,27.02
2023-03-10T14:10:04.109Z,27.33
2023-03-10T14:12:44.434Z,29.25
2023-03-10T14:15:15.380Z,29.94
2023-03-10T14:17:44.691Z,29.46
2023-03-10T14:20:34.997Z,29.59
2023-03-10T14:23:27.162Z,29.32
2023-03-10T14:25:58.392Z,27.74
2023-03-10T14:28:30.883Z,29.74
2023-03-10T14:31:02.426Z,28.99
2023-03-10T14:33:30.559Z,28.00
2023-03-10T14:35:58.200Z,30.49
2023-03-10T14:38:26.248Z,29.76
2023-03-10T14:40:55.050Z,27.64
2023-03-10T14:43:26.234Z,27.79
2023-03-10T14:45:59.068Z,28.32
2023-03-10T14:48:31.074Z,27.83
2023-03-10T14:50:59.093Z,26.44
2023-03-10T14:53:28.560Z,26.74
2023-03-10T14:56:00.341Z,26.39
2023-03-10T14:58:32.834Z,25.89
2023-03-10T15:01:01.525Z,27.28
2023-03-10T15:03:29.672Z,26.61
2023-03-10T15:05:58.154Z,27.30
2023-03-10T15:08:27.548Z,26.74
2023-03-10T15:10:56.768Z,26.15
2023-03-10T15:13:24.754Z,25.94
2023-03-10T15:15:53.227Z,26.14
2023-03-10T15:18:24.439Z,25.06
2023-03-10T15:20:51.990Z,27.18
2023-03-10T15:23:20.393Z,27.19
2023-03-10T15:25:48.652Z,25.90
2023-03-10T15:28:16.631Z,25.15
2023-03-10T15:30:44.851Z,23.51
2023-03-10T15:33:12.830Z,23.44
2023-03-10T15:35:41.578Z,25.58
2023-03-10T15:38:14.141Z,26.80
2023-03-10T15:40:42.890Z,26.01
2023-03-10T15:43:10.409Z,26.60
2023-03-10T15:45:46.530Z,26.95
2023-03-10T15:48:14.592Z,26.45
2023-03-10T15:50:43.825Z,26.09
2023-03-10T15:53:12.699Z,24.00
2023-03-10T15:55:42.258Z,22.11
2023-03-10T15:58:10.942Z,20.01
2023-03-10T16:00:39.272Z,19.79
2023-03-10T16:03:07.909Z,19.80
2023-03-10T16:05:37.698Z,19.57
2023-03-10T16:08:06.395Z,19.78
2023-03-10T16:10:35.161Z,19.65
2023-03-10T16:13:03.167Z,19.46
2023-03-10T16:15:31.171Z,19.18
2023-03-10T16:17:59.789Z,19.32
2023-03-10T16:20:27.843Z,19.35
2023-03-10T16:22:55.959Z,19.28
2023-03-10T16:25:24.145Z,19.29
2023-03-10T16:27:52.017Z,18.82
2023-03-10T16:30:20.454Z,18.62
2023-03-10T16:32:50.647Z,18.36
2023-03-10T16:35:21.268Z,18.47
2023-03-10T16:37:48.818Z,18.36
2023-03-10T16:40:16.960Z,18.53
2023-03-10T16:42:45.837Z,18.48
2023-03-10T16:45:14.337Z,18.17
2023-03-10T16:47:44.116Z,18.21
2023-03-10T16:50:14.071Z,18.13
2023-03-10T16:52:43.435Z,17.92
2023-03-10T16:55:18.323Z,17.90
2023-03-10T16:57:46.086Z,17.85
2023-03-10T17:00:15.467Z,17.81
2023-03-10T17:02:43.847Z,17.72
2023-03-10T17:05:13.164Z,17.82
2023-03-10T17:07:54.778Z,17.72
2023-03-10T17:10:23.853Z,17.54
2023-03-10T17:12:52.081Z,17.40
2023-03-10T17:15:20.061Z,17.31
2023-03-10T17:17:47.578Z,17.33
2023-03-10T17:20:15.646Z,17.36
2023-03-10T17:22:43.184Z,17.10
2023-03-10T17:25:14.013Z,17.21
2023-03-10T17:27:43.292Z,17.08
2023-03-10T17:30:12.483Z,16.96
2023-03-10T17:32:40.488Z,16.96
2023-03-10T17:35:08.930Z,17.02
2023-03-10T17:37:37.107Z,17.04
2023-03-10T17:40:05.215Z,16.95
2023-03-10T17:42:33.707Z,16.90
2023-03-10T17:45:05.857Z,16.87
2023-03-10T17:47:34.956Z,16.59
2023-03-10T17:50:03.695Z,16.68
2023-03-10T17:52:31.867Z,16.57
2023-03-10T17:55:01.082Z,16.54
2023-03-10T17:57:29.155Z,16.53
2023-03-10T17:59:56.690Z,16.56
2023-03-10T18:02:24.666Z,16.49
2023-03-10T18:04:53.362Z,16.54
2023-03-10T18:07:21.186Z,16.50
2023-03-10T18:09:49.067Z,16.39
2023-03-10T18:12:17.076Z,16.28
2023-03-10T18:14:44.638Z,16.36
2023-03-10T18:17:13.073Z,16.31
2023-03-10T18:19:41.021Z,16.23
2023-03-10T18:22:09.200Z,16.20
2023-03-10T18:24:38.078Z,16.20
2023-03-10T18:27:06.360Z,16.15
2023-03-10T18:29:34.341Z,16.21
2023-03-10T18:32:02.506Z,16.25
2023-03-10T18:34:30.644Z,16.31
2023-03-10T18:36:58.266Z,16.36
2023-03-10T18:39:26.195Z,16.25
2023-03-10T18:41:55.294Z,16.31
2023-03-10T18:44:23.721Z,16.22
2023-03-10T18:46:51.532Z,16.19
2023-03-10T18:49:19.599Z,16.13
2023-03-10T18:51:47.419Z,16.12
2023-03-10T18:54:15.130Z,16.05
2023-03-10T18:56:43.240Z,16.09
2023-03-10T18:59:10.966Z,16.07
2023-03-10T19:01:39.078Z,16.07
2023-03-10T19:04:07.062Z,16.14
2023-03-10T19:06:34.648Z,16.11
2023-03-10T19:09:04.030Z,16.28
2023-03-10T19:11:38.863Z,16.35
2023-03-10T19:14:07.303Z,16.34
2023-03-10T19:16:39.982Z,16.26
2023-03-10T19:19:08.035Z,16.34
2023-03-10T19:21:38.601Z,16.44
2023-03-10T19:24:06.966Z,16.32
2023-03-10T19:26:34.833Z,16.36
2023-03-10T19:29:02.949Z,16.34
2023-03-10T19:31:30.859Z,16.26
2023-03-10T19:33:58.999Z,16.19
2023-03-10T19:36:27.339Z,16.26
2023-03-10T19:38:55.385Z,16.36
2023-03-10T19:41:23.664Z,16.40
2023-03-10T19:43:51.446Z,16.36
2023-03-10T19:46:20.329Z,16.43
2023-03-10T19:48:48.486Z,16.36
2023-03-10T19:51:22.819Z,16.35
2023-03-10T19:53:52.429Z,16.19
2023-03-10T19:56:21.523Z,16.11
2023-03-10T19:58:50.462Z,15.99
2023-03-10T20:01:24.588Z,15.80
2023-03-10T20:03:55.706Z,15.82
2023-03-10T20:06:24.427Z,15.68
2023-03-10T20:08:52.446Z,15.62
2023-03-10T20:11:21.451Z,15.59
2023-03-10T20:13:52.172Z,15.57
2023-03-10T20:16:22.689Z,15.55
2023-03-10T20:18:50.366Z,15.49
2023-03-10T20:21:18.068Z,15.58
2023-03-10T20:23:47.761Z,15.80
2023-03-10T20:26:16.960Z,15.79
2023-03-10T20:28:45.152Z,15.70
2023-03-10T20:31:21.419Z,15.66
2023-03-10T20:33:50.139Z,15.72
2023-03-10T20:36:18.886Z,15.85
2023-03-10T20:38:47.371Z,15.72
2023-03-10T20:41:17.491Z,15.80
2023-03-10T20:43:45.966Z,15.68
2023-03-10T20:46:15.289Z,15.64
2023-03-10T20:48:43.731Z,15.77
2023-03-10T20:51:14.950Z,15.67
2023-03-10T20:53:43.067Z,15.57
2023-03-10T20:56:12.310Z,15.59
2023-03-10T20:58:41.295Z,15.56
2023-03-10T21:01:17.417Z,15.58
2023-03-10T21:03:45.861Z,15.51
2023-03-10T21:06:13.822Z,15.40
2023-03-10T21:08:42.366Z,15.42
2023-03-10T21:11:09.826Z,15.27
2023-03-10T21:13:37.696Z,15.31
2023-03-10T21:16:06.137Z,15.27
2023-03-10T21:18:34.207Z,15.18
2023-03-10T21:21:07.492Z,15.21
2023-03-10T21:23:43.036Z,15.12
2023-03-10T21:26:18.117Z,15.21
2023-03-10T21:28:46.251Z,15.12
2023-03-10T21:31:15.696Z,15.15
2023-03-10T21:33:43.908Z,15.10
2023-03-10T21:36:14.720Z,15.06
2023-03-10T21:38:43.210Z,14.92
2023-03-10T21:41:14.548Z,14.82
2023-03-10T21:43:42.058Z,14.80
2023-03-10T21:46:10.142Z,14.74
2023-03-10T21:48:38.461Z,14.77
2023-03-10T21:51:09.807Z,14.81
2023-03-10T21:53:37.863Z,14.73
2023-03-10T21:56:06.407Z,14.80
2023-03-10T21:58:35.205Z,14.77
2023-03-10T22:01:07.732Z,14.72
2023-03-10T22:03:35.954Z,14.53
2023-03-10T22:06:04.966Z,14.49
2023-03-10T22:08:34.314Z,14.48
2023-03-10T22:11:03.578Z,14.43
2023-03-10T22:13:31.341Z,14.49
2023-03-10T22:16:03.626Z,14.47
2023-03-10T22:18:32.418Z,14.33
2023-03-10T22:20:59.972Z,14.40
2023-03-10T22:23:27.621Z,14.22
2023-03-10T22:25:55.783Z,14.27
2023-03-10T22:28:24.224Z,14.18
2023-03-10T22:30:52.215Z,14.12
2023-03-10T22:33:20.755Z,14.11
2023-03-10T22:35:52.207Z,14.10
2023-03-10T22:38:20.665Z,13.95
2023-03-10T22:40:48.737Z,13.88
2023-03-10T22:43:16.284Z,13.90
2023-03-10T22:45:44.333Z,13.98
2023-03-10T22:48:12.459Z,13.93
2023-03-10T22:50:43.705Z,13.97
2023-03-10T22:53:17.522Z,14.11
2023-03-10T22:55:46.589Z,14.13
2023-03-10T22:58:16.364Z,14.07
2023-03-10T23:00:44.614Z,14.03
2023-03-10T23:03:13.872Z,14.05
2023-03-10T23:05:42.424Z,14.04
2023-03-10T23:08:10.225Z,14.12
2023-03-10T23:10:39.708Z,14.09
2023-03-10T23:13:10.340Z,14.07
2023-03-10T23:15:38.556Z,14.20
2023-03-10T23:18:07.202Z,14.25
2023-03-10T23:20:38.272Z,14.22
2023-03-10T23:23:07.265Z,14.18
2023-03-10T23:25:38.296Z,14.17
2023-03-10T23:28:08.038Z,14.16
2023-03-10T23:30:38.256Z,14.22
2023-03-10T23:33:07.578Z,14.28
2023-03-10T23:35:36.229Z,14.20
2023-03-10T23:38:05.875Z,14.12
2023-03-10T23:40:35.264Z,14.12
2023-03-10T23:43:06.955Z,14.09
2023-03-10T23:45:38.385Z,14.03
2023-03-10T23:48:09.171Z,14.07
2023-03-10T23:50:41.938Z,14.14
2023-03-10T23:53:11.663Z,14.19
2023-03-10T23:55:42.037Z,14.09
2023-03-10T23:58:10.713Z,14.08
